Time;durP1;ratioP1;P1;durP2;ratioP2;P2;SDS_P1;SDS_P2;PMS_P1;PMS_P2;Temp;Humidity;BMP_temperature;BMP_pressure;BME280_temperature;BME280_humidity;BME280_pressure;Samples;Min_cycle;Max_cycle;Signal;HPM_P1;HPM_P2
2023/06/27 00:01:04;;;;;;;12.10;2.10;;;18.00;99.90;;;;;;5115473;28;20156;-48
2023/06/27 00:03:36;;;;;;;6.82;2.00;;;17.70;99.90;;;;;;5115481;28;20165;-48
2023/06/27 00:06:04;;;;;;;5.15;2.42;;;17.60;99.90;;;;;;5115527;28;20168;-48
2023/06/27 00:08:31;;;;;;;4.93;1.85;;;;;;;;;;5114959;28;20179;-48
2023/06/27 00:10:58;;;;;;;6.75;2.25;;;17.90;99.90;;;;;;5115395;28;20240;-47
2023/06/27 00:13:23;;;;;;;6.72;2.50;;;17.90;99.90;;;;;;5115231;28;20169;-48
2023/06/27 00:15:52;;;;;;;4.82;1.70;;;17.70;99.90;;;;;;5096886;28;20225;-48
2023/06/27 00:18:22;;;;;;;7.78;2.35;;;17.60;99.90;;;;;;5115146;28;20153;-48
2023/06/27 00:20:48;;;;;;;6.57;2.08;;;17.70;99.90;;;;;;5115351;28;20233;-48
2023/06/27 00:23:18;;;;;;;6.82;2.17;;;17.60;99.90;;;;;;5115007;28;20161;-48
2023/06/27 00:25:44;;;;;;;3.25;1.75;;;17.80;99.90;;;;;;5114891;28;20160;-48
2023/06/27 00:28:10;;;;;;;3.00;1.70;;;;;;;;;;5115392;28;20181;-48
2023/06/27 00:30:36;;;;;;;5.97;1.52;;;17.60;99.90;;;;;;5115271;28;20283;-48
2023/06/27 00:33:02;;;;;;;6.22;1.63;;;17.50;99.90;;;;;;5114871;28;20168;-48
2023/06/27 00:35:32;;;;;;;5.28;1.70;;;17.50;99.90;;;;;;5096964;28;20631;-48
2023/06/27 00:38:03;;;;;;;4.72;2.10;;;17.60;99.90;;;;;;5114733;28;20160;-48
2023/06/27 00:40:29;;;;;;;7.20;2.20;;;17.70;99.90;;;;;;5114758;28;20213;-48
2023/06/27 00:42:54;;;;;;;4.20;1.80;;;17.70;99.90;;;;;;5114662;28;20248;-48
2023/06/27 00:45:22;;;;;;;4.15;2.05;;;17.70;99.90;;;;;;5114614;28;20176;-48
2023/06/27 00:47:50;;;;;;;2.17;1.80;;;17.80;99.90;;;;;;5114803;28;20168;-48
2023/06/27 00:50:16;;;;;;;3.33;1.73;;;17.90;99.90;;;;;;5114465;28;20279;-48
2023/06/27 00:52:42;;;;;;;4.95;1.80;;;17.90;99.90;;;;;;5114372;28;20282;-48
2023/06/27 00:55:08;;;;;;;7.45;2.05;;;17.80;99.90;;;;;;5114926;28;20204;-48
2023/06/27 00:57:35;;;;;;;5.78;2.00;;;17.90;99.90;;;;;;5114420;28;20165;-48
2023/06/27 01:00:00;;;;;;;3.25;1.88;;;18.00;99.90;;;;;;5114347;28;20630;-48
2023/06/27 01:02:26;;;;;;;4.13;2.22;;;18.30;99.90;;;;;;5113920;28;20165;-48
2023/06/27 01:04:52;;;;;;;4.68;1.85;;;17.70;99.90;;;;;;5114297;28;20213;-48
2023/06/27 01:07:22;;;;;;;4.60;2.10;;;18.00;99.90;;;;;;5114153;28;20165;-48
2023/06/27 01:09:53;;;;;;;4.90;2.58;;;17.90;99.90;;;;;;5113866;28;20304;-48
2023/06/27 01:12:33;;;;;;;5.70;2.40;;;18.00;99.90;;;;;;5114056;28;20161;-49
2023/06/27 01:15:00;;;;;;;5.57;2.28;;;17.90;99.90;;;;;;5114120;28;20186;-48
2023/06/27 01:17:28;;;;;;;4.72;2.05;;;17.40;99.90;;;;;;5114064;28;20172;-49
2023/06/27 01:19:55;;;;;;;3.45;2.25;;;17.90;99.90;;;;;;5114122;28;20230;-49
2023/06/27 01:22:30;;;;;;;3.70;2.03;;;17.90;99.90;;;;;;5113911;28;20165;-49
2023/06/27 01:24:56;;;;;;;10.07;2.50;;;17.90;99.90;;;;;;5113923;28;20659;-49
2023/06/27 01:27:22;;;;;;;5.57;2.47;;;17.50;99.90;;;;;;5114005;28;20528;-49
2023/06/27 01:29:48;;;;;;;6.78;2.35;;;17.60;99.90;;;;;;5113810;28;20196;-49
2023/06/27 01:32:24;;;;;;;3.47;2.35;;;18.90;99.90;;;;;;5113981;28;20164;-49
2023/06/27 01:35:06;;;;;;;3.97;2.25;;;18.00;99.90;;;;;;5113644;28;20187;-49
2023/06/27 01:37:41;;;;;;;3.20;2.30;;;17.80;99.90;;;;;;5113480;28;20612;-49
2023/06/27 01:40:11;;;;;;;5.60;2.42;;;17.70;99.90;;;;;;5114003;28;20690;-49
2023/06/27 01:42:40;;;;;;;2.45;2.08;;;;;;;;;;5113894;28;20164;-49
2023/06/27 01:45:08;;;;;;;3.70;2.33;;;17.80;99.90;;;;;;5113780;28;20218;-53
2023/06/27 01:47:38;;;;;;;5.28;2.33;;;17.70;99.90;;;;;;5113645;28;20272;-49
2023/06/27 01:50:04;;;;;;;2.83;2.15;;;17.90;99.90;;;;;;5113115;28;20726;-49
2023/06/27 01:52:29;;;;;;;6.78;2.45;;;17.90;99.90;;;;;;5113668;28;21084;-47
2023/06/27 01:54:56;;;;;;;3.40;2.50;;;17.90;99.90;;;;;;5113251;28;20639;-47
2023/06/27 01:57:21;;;;;;;3.72;2.33;;;17.50;99.90;;;;;;5113486;28;20254;-47
2023/06/27 01:59:47;;;;;;;4.15;2.40;;;17.70;99.90;;;;;;5113478;28;20175;-47
2023/06/27 02:02:12;;;;;;;5.72;2.80;;;17.50;99.90;;;;;;5113085;28;20627;-47
2023/06/27 02:04:38;;;;;;;4.28;2.55;;;17.50;99.90;;;;;;5113495;28;20165;-47
2023/06/27 02:07:04;;;;;;;4.68;2.22;;;;;;;;;;5113056;28;20168;-47
2023/06/27 02:09:30;;;;;;;3.88;2.20;;;17.80;99.90;;;;;;5112672;28;20269;-47
2023/06/27 02:11:55;;;;;;;5.13;2.30;;;16.90;99.90;;;;;;5112873;28;20164;-47
2023/06/27 02:14:21;;;;;;;5.95;2.15;;;16.90;99.90;;;;;;5112166;28;20169;-47
2023/06/27 02:16:46;;;;;;;3.33;2.10;;;16.70;99.90;;;;;;5112816;28;20616;-47
2023/06/27 02:19:12;;;;;;;4.57;2.58;;;17.30;99.90;;;;;;5112814;28;20528;-47
2023/06/27 02:21:37;;;;;;;4.18;2.30;;;16.90;99.90;;;;;;5113136;28;20516;-46
2023/06/27 02:24:03;;;;;;;5.75;2.40;;;17.00;99.90;;;;;;5112719;28;20657;-47
2023/06/27 02:26:29;;;;;;;4.90;2.53;;;17.00;99.90;;;;;;5112670;28;20567;-47
2023/06/27 02:28:54;;;;;;;4.18;2.50;;;16.70;99.90;;;;;;5112687;28;20175;-47
2023/06/27 02:31:20;;;;;;;6.38;2.97;;;16.80;99.90;;;;;;5112485;28;20212;-47
2023/06/27 02:33:45;;;;;;;4.28;2.42;;;17.20;99.90;;;;;;5112551;28;20161;-47
2023/06/27 02:36:11;;;;;;;5.28;2.67;;;16.90;99.90;;;;;;5093292;28;20169;-47
2023/06/27 02:38:36;;;;;;;5.82;2.65;;;17.10;99.90;;;;;;5092538;28;20166;-47
2023/06/27 02:41:02;;;;;;;4.18;2.50;;;17.00;99.90;;;;;;5092260;28;20169;-47
2023/06/27 02:43:27;;;;;;;5.53;2.50;;;17.10;99.90;;;;;;5092271;28;20490;-47
2023/06/27 02:45:53;;;;;;;4.85;2.45;;;16.80;99.90;;;;;;5092010;28;20177;-47
2023/06/27 02:48:19;;;;;;;5.50;2.30;;;;;;;;;;5091993;28;20248;-47
2023/06/27 02:50:49;;;;;;;3.22;2.45;;;16.90;99.90;;;;;;5091832;28;20247;-47
2023/06/27 02:53:15;;;;;;;4.38;2.53;;;17.10;99.90;;;;;;5074025;28;20598;-47
2023/06/27 02:55:40;;;;;;;5.75;2.60;;;;;;;;;;5091807;28;20201;-47
2023/06/27 02:58:06;;;;;;;6.25;2.60;;;16.70;99.90;;;;;;5092336;28;20515;-48
2023/06/27 03:00:32;;;;;;;3.05;2.47;;;16.80;99.90;;;;;;5091869;28;20242;-47
2023/06/27 03:02:57;;;;;;;6.15;2.05;;;16.90;99.90;;;;;;5091900;28;20200;-47
2023/06/27 03:05:23;;;;;;;6.88;2.50;;;;;;;;;;5091773;28;20172;-48
2023/06/27 03:07:49;;;;;;;5.00;2.45;;;17.00;99.90;;;;;;5091725;28;20633;-47
2023/06/27 03:10:14;;;;;;;5.47;2.42;;;17.00;99.90;;;;;;5091573;28;20583;-47
2023/06/27 03:12:40;;;;;;;5.05;2.30;;;16.60;99.90;;;;;;5091584;28;20220;-47
2023/06/27 03:15:06;;;;;;;6.93;2.47;;;17.90;99.90;;;;;;5091979;28;20620;-47
2023/06/27 03:17:31;;;;;;;3.55;2.50;;;17.10;99.90;;;;;;5091783;28;20565;-47
2023/06/27 03:19:57;;;;;;;5.25;2.67;;;17.00;99.90;;;;;;5091530;28;20213;-47
2023/06/27 03:22:23;;;;;;;5.97;2.45;;;17.00;99.90;;;;;;5091556;28;20166;-47
2023/06/27 03:24:48;;;;;;;3.63;2.47;;;16.70;99.90;;;;;;5091743;28;20674;-47
2023/06/27 03:27:20;;;;;;;5.80;2.78;;;16.90;99.90;;;;;;5094968;28;20722;-47
2023/06/27 03:29:45;;;;;;;5.38;2.40;;;16.70;99.90;;;;;;5095569;28;20743;-47
2023/06/27 03:32:12;;;;;;;5.88;2.53;;;16.80;99.90;;;;;;5077527;28;20260;-47
2023/06/27 03:34:40;;;;;;;6.13;2.20;;;17.20;99.90;;;;;;5096289;28;20176;-47
2023/06/27 03:37:05;;;;;;;5.97;2.70;;;16.90;99.90;;;;;;5096014;28;20161;-47
2023/06/27 03:39:31;;;;;;;4.55;2.58;;;17.10;99.90;;;;;;5095715;28;20177;-47
2023/06/27 03:41:56;;;;;;;5.85;2.50;;;16.70;99.90;;;;;;5095459;28;20523;-47
2023/06/27 03:44:22;;;;;;;6.65;2.42;;;17.60;99.90;;;;;;5095296;28;20173;-47
2023/06/27 03:46:48;;;;;;;4.18;2.22;;;;;;;;;;5095310;28;20165;-47
2023/06/27 03:49:13;;;;;;;4.65;2.55;;;16.90;99.90;;;;;;5095201;28;20169;-47
2023/06/27 03:51:42;;;;;;;7.00;2.60;;;16.90;99.90;;;;;;5095738;28;20210;-47
2023/06/27 03:54:09;;;;;;;6.60;2.33;;;16.90;99.90;;;;;;5095704;28;20528;-47
2023/06/27 03:56:35;;;;;;;4.82;2.65;;;;;;;;;;5095524;28;20520;-47
2023/06/27 03:59:01;;;;;;;5.05;2.30;;;17.00;99.90;;;;;;5095087;28;20199;-47
2023/06/27 04:01:26;;;;;;;7.18;2.45;;;16.90;99.90;;;;;;5095121;28;20192;-47
2023/06/27 04:03:52;;;;;;;6.70;2.40;;;17.10;99.90;;;;;;5095060;28;20164;-47
2023/06/27 04:06:18;;;;;;;4.57;2.13;;;16.80;99.90;;;;;;5095213;28;20524;-47
2023/06/27 04:08:44;;;;;;;6.97;3.50;;;16.90;99.90;;;;;;5094821;28;20684;-47
2023/06/27 04:11:10;;;;;;;4.38;2.33;;;17.60;99.90;;;;;;5076668;28;20299;-47
2023/06/27 04:13:37;;;;;;;6.88;2.67;;;16.50;99.90;;;;;;5095253;28;20218;-47
2023/06/27 04:16:02;;;;;;;5.85;2.60;;;17.00;99.90;;;;;;5095106;28;20181;-49
2023/06/27 04:18:29;;;;;;;7.03;2.58;;;16.80;99.90;;;;;;5094707;28;20162;-49
2023/06/27 04:20:55;;;;;;;7.13;2.22;;;16.60;99.90;;;;;;5095029;28;20197;-49
2023/06/27 04:23:20;;;;;;;5.07;2.65;;;16.30;99.90;;;;;;5094695;28;20208;-49
2023/06/27 04:26:03;;;;;;;5.57;2.65;;;16.70;99.90;;;;;;5094627;28;20174;-49
2023/06/27 04:28:30;;;;;;;6.82;2.78;;;16.80;99.90;;;;;;5094577;28;20249;-49
2023/06/27 04:30:55;;;;;;;5.28;2.60;;;16.80;99.90;;;;;;5094722;28;20235;-49
2023/06/27 04:33:22;;;;;;;8.20;2.72;;;16.70;99.90;;;;;;5094624;28;20625;-49
2023/06/27 04:35:48;;;;;;;9.82;2.83;;;16.80;99.90;;;;;;5094385;28;20561;-49
2023/06/27 04:38:14;;;;;;;7.18;3.03;;;16.60;99.90;;;;;;5093579;28;20249;-49
2023/06/27 04:40:41;;;;;;;6.78;2.60;;;16.60;99.90;;;;;;5094579;28;20173;-49
2023/06/27 04:43:07;;;;;;;7.80;3.20;;;17.40;99.90;;;;;;5094717;28;20161;-49
2023/06/27 04:45:32;;;;;;;8.68;3.22;;;16.90;99.90;;;;;;5094151;28;20214;-49
2023/06/27 04:47:58;;;;;;;3.53;2.33;;;16.90;99.90;;;;;;5094067;28;20806;-49
2023/06/27 04:50:24;;;;;;;7.90;2.80;;;;;;;;;;5093864;28;20207;-49
2023/06/27 04:52:49;;;;;;;7.40;2.92;;;16.70;99.90;;;;;;5093896;28;20168;-49
2023/06/27 04:55:15;;;;;;;7.38;3.30;;;16.80;99.90;;;;;;5094036;28;20170;-48
2023/06/27 04:57:41;;;;;;;10.20;2.78;;;17.20;99.90;;;;;;5094132;28;20184;-49
2023/06/27 05:00:10;;;;;;;6.18;2.42;;;16.30;99.90;;;;;;5094346;28;20201;-49
2023/06/27 05:02:36;;;;;;;7.40;3.20;;;16.80;99.90;;;;;;5094582;28;20602;-49
2023/06/27 05:05:03;;;;;;;13.27;2.83;;;16.60;99.90;;;;;;5075705;28;20652;-49
2023/06/27 05:07:28;;;;;;;4.43;2.42;;;16.80;99.90;;;;;;5094039;28;20180;-49
2023/06/27 05:09:54;;;;;;;8.48;2.85;;;16.70;99.90;;;;;;5093612;28;20221;-49
2023/06/27 05:12:20;;;;;;;8.35;2.95;;;17.40;99.90;;;;;;5093911;28;20212;-49
2023/06/27 05:14:45;;;;;;;7.95;2.60;;;17.10;99.90;;;;;;5093654;28;20686;-49
2023/06/27 05:17:11;;;;;;;6.50;2.70;;;17.40;99.90;;;;;;5093587;28;20209;-49
2023/06/27 05:19:36;;;;;;;5.15;2.35;;;17.30;99.90;;;;;;5094050;28;20231;-49
2023/06/27 05:22:02;;;;;;;11.95;3.25;;;;;;;;;;5093648;28;20165;-49
2023/06/27 05:24:28;;;;;;;6.07;2.67;;;17.20;99.90;;;;;;5093484;28;20173;-49
2023/06/27 05:26:53;;;;;;;7.70;3.00;;;16.90;99.90;;;;;;5093483;28;20174;-49
2023/06/27 05:29:19;;;;;;;9.88;3.03;;;17.10;99.90;;;;;;5093356;28;20161;-49
2023/06/27 05:31:44;;;;;;;6.93;2.55;;;17.40;99.90;;;;;;5093275;28;20696;-49
2023/06/27 05:34:12;;;;;;;6.47;2.78;;;17.50;99.90;;;;;;5093293;28;20789;-49
2023/06/27 05:36:37;;;;;;;10.43;2.53;;;17.70;99.90;;;;;;5093651;28;20170;-49
2023/06/27 05:39:03;;;;;;;9.13;3.13;;;;;;;;;;5075068;28;20314;-49
2023/06/27 05:41:30;;;;;;;10.57;2.72;;;17.80;99.90;;;;;;5093066;28;20172;-49
2023/06/27 05:43:56;;;;;;;11.35;3.38;;;17.90;99.90;;;;;;5093346;28;20622;-49
2023/06/27 05:46:21;;;;;;;8.27;3.22;;;18.20;99.90;;;;;;5093039;28;20223;-49
2023/06/27 05:48:47;;;;;;;7.32;2.97;;;18.20;99.90;;;;;;5092554;28;20170;-47
2023/06/27 05:51:12;;;;;;;11.02;3.00;;;18.20;99.90;;;;;;5092299;28;20276;-47
2023/06/27 05:53:39;;;;;;;11.68;3.08;;;;;;;;;;5093489;28;20588;-47
2023/06/27 05:56:05;;;;;;;7.20;2.75;;;;;;;;;;5093338;28;20625;-49
2023/06/27 05:58:35;;;;;;;6.35;2.80;;;18.60;99.90;;;;;;5092846;28;20605;-49
2023/06/27 06:01:00;;;;;;;10.23;3.00;;;18.40;99.90;;;;;;5092917;28;20204;-49
2023/06/27 06:03:26;;;;;;;5.57;2.90;;;19.10;99.90;;;;;;5092757;28;20684;-49
2023/06/27 06:05:51;;;;;;;6.85;2.95;;;18.80;99.90;;;;;;5092583;28;20621;-49
2023/06/27 06:08:18;;;;;;;9.00;3.00;;;18.80;99.90;;;;;;5092676;28;20536;-49
2023/06/27 06:10:45;;;;;;;6.53;2.85;;;19.00;99.90;;;;;;5092265;28;20304;-47
2023/06/27 06:13:11;;;;;;;9.00;3.30;;;;;;;;;;5100367;28;20196;-45
2023/06/27 06:15:36;;;;;;;9.77;2.83;;;19.30;99.90;;;;;;5111545;28;20196;-46
2023/06/27 06:18:02;;;;;;;10.07;3.08;;;;;;;;;;5111331;28;20192;-46
2023/06/27 06:20:29;;;;;;;6.38;3.03;;;19.10;99.90;;;;;;5111127;28;21152;-47
2023/06/27 06:22:55;;;;;;;9.52;2.65;;;19.20;99.90;;;;;;5107430;28;20267;-47
2023/06/27 06:25:21;;;;;;;7.55;2.85;;;;;;;;;;5090352;28;20165;-47
2023/06/27 06:27:46;;;;;;;9.60;2.50;;;19.20;99.90;;;;;;5072959;28;20168;-50
2023/06/27 06:30:12;;;;;;;9.18;2.88;;;19.20;99.90;;;;;;5090525;28;20209;-47
2023/06/27 06:32:38;;;;;;;9.43;2.90;;;;;;;;;;5090760;28;20271;-47
2023/06/27 06:35:04;;;;;;;6.40;2.90;;;;;;;;;;5090728;28;20165;-47
2023/06/27 06:37:30;;;;;;;7.53;2.80;;;19.20;99.90;;;;;;5090268;28;20249;-47
2023/06/27 06:39:56;;;;;;;8.55;2.95;;;;;;;;;;5090408;28;20331;-46
2023/06/27 06:42:21;;;;;;;10.90;3.35;;;19.40;99.90;;;;;;5090213;28;20708;-47
2023/06/27 06:44:48;;;;;;;8.35;2.85;;;20.10;99.90;;;;;;5090268;28;20621;-47
2023/06/27 06:47:14;;;;;;;12.95;2.75;;;19.80;99.90;;;;;;5090073;28;20161;-52
2023/06/27 06:49:39;;;;;;;11.52;3.30;;;19.90;99.90;;;;;;5090109;28;20185;-46
2023/06/27 06:52:05;;;;;;;11.38;3.10;;;;;;;;;;5090485;28;20261;-49
2023/06/27 06:54:31;;;;;;;9.07;3.20;;;;;;;;;;5090054;28;20175;-48
2023/06/27 06:56:57;;;;;;;13.43;3.22;;;20.10;99.90;;;;;;5090177;28;20248;-48
2023/06/27 06:59:22;;;;;;;8.73;3.03;;;19.50;99.90;;;;;;5090884;28;20172;-47
2023/06/27 07:01:48;;;;;;;14.70;3.22;;;20.00;99.90;;;;;;5091424;28;20165;-50
2023/06/27 07:04:13;;;;;;;9.48;3.13;;;20.10;99.90;;;;;;5091757;28;20169;-49
2023/06/27 07:06:39;;;;;;;9.05;3.17;;;20.10;99.90;;;;;;5091671;28;20172;-50
2023/06/27 07:09:05;;;;;;;9.43;3.28;;;20.30;99.90;;;;;;5091937;28;20257;-49
2023/06/27 07:11:31;;;;;;;10.07;3.22;;;19.90;99.90;;;;;;5091689;28;20308;-50
2023/06/27 07:13:59;;;;;;;10.48;3.35;;;19.80;99.90;;;;;;5091619;28;20269;-48
2023/06/27 07:16:24;;;;;;;12.25;3.22;;;20.50;99.90;;;;;;5091502;28;20203;-49
2023/06/27 07:18:51;;;;;;;7.57;2.80;;;20.20;99.90;;;;;;5091844;28;20163;-49
2023/06/27 07:21:17;;;;;;;8.55;2.97;;;20.70;99.90;;;;;;5091807;28;20195;-49
2023/06/27 07:23:42;;;;;;;13.38;3.13;;;20.60;99.90;;;;;;5091596;28;20164;-48
2023/06/27 07:26:08;;;;;;;17.60;3.10;;;;;;;;;;5091635;28;20176;-49
2023/06/27 07:28:34;;;;;;;8.23;3.42;;;20.50;99.90;;;;;;5091889;28;20180;-49
2023/06/27 07:30:59;;;;;;;7.85;3.38;;;20.50;99.90;;;;;;5091331;28;20205;-48
2023/06/27 07:33:25;;;;;;;16.63;4.00;;;21.50;99.90;;;;;;5091739;28;20256;-49
2023/06/27 07:35:51;;;;;;;10.70;3.47;;;20.70;99.90;;;;;;5091430;28;20173;-49
2023/06/27 07:38:16;;;;;;;10.82;2.55;;;20.90;99.90;;;;;;5091377;28;20659;-49
2023/06/27 07:40:43;;;;;;;10.15;2.63;;;21.20;99.90;;;;;;5091374;28;20169;-48
2023/06/27 07:43:08;;;;;;;11.10;3.03;;;21.10;99.90;;;;;;5091356;28;20170;-48
2023/06/27 07:45:34;;;;;;;10.02;3.10;;;21.40;99.90;;;;;;5091748;28;20177;-49
2023/06/27 07:47:59;;;;;;;8.52;2.83;;;20.60;99.90;;;;;;5091287;28;20215;-48
2023/06/27 07:50:25;;;;;;;12.45;3.40;;;20.60;99.90;;;;;;5091262;28;20258;-48
2023/06/27 07:52:51;;;;;;;14.25;3.85;;;20.80;99.90;;;;;;5091226;28;20624;-48
2023/06/27 07:55:17;;;;;;;6.95;2.97;;;;;;;;;;5091151;28;20199;-48
2023/06/27 07:57:42;;;;;;;12.80;2.92;;;21.10;99.90;;;;;;5091185;28;20240;-49
2023/06/27 08:00:08;;;;;;;9.82;3.03;;;21.40;99.90;;;;;;5091456;28;20200;-48
2023/06/27 08:02:34;;;;;;;10.20;2.95;;;21.50;99.90;;;;;;5091770;28;20260;-48
2023/06/27 08:05:00;;;;;;;9.07;4.28;;;21.80;99.90;;;;;;5091188;28;20697;-49
2023/06/27 08:07:26;;;;;;;11.40;3.30;;;21.20;99.90;;;;;;5091036;28;20162;-48
2023/06/27 08:09:51;;;;;;;12.55;3.40;;;22.20;99.90;;;;;;5090775;28;20224;-48
2023/06/27 08:12:17;;;;;;;13.07;3.63;;;22.00;99.90;;;;;;5091351;28;20172;-49
2023/06/27 08:14:45;;;;;;;11.50;2.83;;;21.70;99.90;;;;;;5095093;28;20629;-49
2023/06/27 08:17:10;;;;;;;9.48;3.13;;;21.50;99.90;;;;;;5094769;28;20169;-48
2023/06/27 08:19:36;;;;;;;8.27;2.92;;;22.10;99.90;;;;;;5095233;28;20184;-49
2023/06/27 08:22:01;;;;;;;10.75;3.08;;;22.40;99.90;;;;;;5094673;28;20628;-48
2023/06/27 08:24:27;;;;;;;10.20;2.67;;;22.50;99.90;;;;;;5094640;28;20173;-48
2023/06/27 08:26:55;;;;;;;7.55;2.72;;;22.30;99.90;;;;;;5094420;28;20189;-49
2023/06/27 08:29:21;;;;;;;13.25;3.13;;;21.90;99.90;;;;;;5094800;28;20169;-48
2023/06/27 08:31:48;;;;;;;7.15;2.80;;;22.80;99.90;;;;;;5094481;28;20226;-48
2023/06/27 08:34:13;;;;;;;7.30;2.78;;;22.60;99.90;;;;;;5094443;28;20184;-49
2023/06/27 08:36:39;;;;;;;9.10;3.35;;;22.30;99.90;;;;;;5094652;28;20174;-48
2023/06/27 08:39:05;;;;;;;12.45;3.10;;;22.90;99.90;;;;;;5094778;28;20673;-48
2023/06/27 08:41:30;;;;;;;7.55;2.40;;;22.60;99.90;;;;;;5094547;28;20193;-48
2023/06/27 08:43:56;;;;;;;7.05;2.90;;;22.60;99.90;;;;;;5094186;28;20625;-49
2023/06/27 08:46:23;;;;;;;13.30;3.05;;;22.60;99.90;;;;;;5094102;28;20576;-49
2023/06/27 08:48:52;;;;;;;11.73;3.22;;;22.60;99.90;;;;;;5094249;28;20177;-48
2023/06/27 08:51:21;;;;;;;8.05;2.78;;;22.90;99.90;;;;;;5094014;28;20289;-48
2023/06/27 08:53:49;;;;;;;6.43;2.63;;;22.20;99.90;;;;;;5094060;28;20314;-48
2023/06/27 08:56:18;;;;;;;8.93;3.00;;;22.50;99.90;;;;;;5094072;28;20176;-48
2023/06/27 08:58:45;;;;;;;7.22;2.75;;;22.20;99.90;;;;;;5075895;28;20244;-48
2023/06/27 09:01:11;;;;;;;10.93;2.60;;;22.80;99.90;;;;;;5094160;28;20188;-48
2023/06/27 09:03:37;;;;;;;9.32;2.50;;;22.80;99.90;;;;;;5094363;28;20169;-48
2023/06/27 09:06:05;;;;;;;7.55;2.92;;;22.60;99.90;;;;;;5094368;28;20244;-48
2023/06/27 09:08:31;;;;;;;9.82;2.78;;;23.10;99.90;;;;;;5093639;28;20195;-48
2023/06/27 09:10:59;;;;;;;7.03;2.58;;;22.80;99.90;;;;;;5093948;28;20213;-48
2023/06/27 09:13:26;;;;;;;15.40;2.95;;;22.60;99.90;;;;;;5093687;28;20161;-48
2023/06/27 09:15:51;;;;;;;8.70;2.42;;;22.20;99.90;;;;;;5075296;28;20169;-48
2023/06/27 09:18:17;;;;;;;8.20;2.92;;;22.70;99.90;;;;;;5093665;28;20180;-48
2023/06/27 09:20:44;;;;;;;9.77;2.92;;;;;;;;;;5093809;28;20175;-48
2023/06/27 09:23:10;;;;;;;7.05;2.67;;;23.30;99.90;;;;;;5093444;28;20165;-48
2023/06/27 09:25:36;;;;;;;9.50;2.85;;;23.70;99.90;;;;;;5093809;28;20621;-48
2023/06/27 09:28:15;;;;;;;5.60;2.22;;;23.00;99.90;;;;;;5093352;28;20172;-48
2023/06/27 09:30:51;;;;;;;8.15;2.65;;;23.00;99.90;;;;;;5093558;28;20282;-48
2023/06/27 09:33:18;;;;;;;8.63;2.50;;;22.90;99.90;;;;;;5093543;28;20523;-48
2023/06/27 09:35:45;;;;;;;10.68;3.22;;;23.10;99.90;;;;;;5093327;28;20161;-48
2023/06/27 09:38:10;;;;;;;5.20;2.55;;;22.60;99.90;;;;;;5093443;28;20202;-48
2023/06/27 09:40:37;;;;;;;6.70;2.53;;;22.90;99.90;;;;;;5093622;28;20234;-48
2023/06/27 09:43:06;;;;;;;4.85;2.22;;;22.70;99.90;;;;;;5093776;28;20222;-48
2023/06/27 09:45:32;;;;;;;13.00;2.72;;;;;;;;;;5093053;28;20164;-48
2023/06/27 09:47:58;;;;;;;7.30;2.58;;;23.60;99.90;;;;;;5092975;28;20161;-48
2023/06/27 09:50:27;;;;;;;4.00;2.00;;;23.20;99.90;;;;;;5092878;28;20192;-48
2023/06/27 09:53:00;;;;;;;3.67;2.17;;;22.90;99.90;;;;;;5093041;28;20161;-48
2023/06/27 09:55:25;;;;;;;9.45;2.42;;;23.00;99.90;;;;;;5093098;28;20169;-49
2023/06/27 09:57:52;;;;;;;8.65;2.20;;;23.00;99.90;;;;;;5092953;28;20177;-49
2023/06/27 10:00:20;;;;;;;4.05;2.10;;;;;;;;;;5093096;28;20206;-48
2023/06/27 10:02:48;;;;;;;5.63;2.25;;;23.20;99.90;;;;;;5093020;28;20256;-48
2023/06/27 10:05:15;;;;;;;13.50;2.35;;;23.10;99.90;;;;;;5092767;28;20164;-48
2023/06/27 10:07:43;;;;;;;5.95;2.40;;;23.70;99.90;;;;;;5092847;28;20255;-48
2023/06/27 10:10:09;;;;;;;6.57;2.38;;;23.50;99.90;;;;;;5092556;28;20572;-49
2023/06/27 10:12:35;;;;;;;7.22;2.20;;;;;;;;;;5093165;28;20171;-49
2023/06/27 10:15:02;;;;;;;4.50;2.30;;;24.10;99.90;;;;;;5091796;28;20247;-49
2023/06/27 10:17:28;;;;;;;4.95;2.60;;;24.80;99.90;;;;;;5092536;28;20200;-48
2023/06/27 10:19:54;;;;;;;7.45;2.40;;;24.90;99.90;;;;;;5092276;28;20196;-49
2023/06/27 10:22:25;;;;;;;6.03;2.45;;;24.30;99.90;;;;;;5092088;28;20639;-49
2023/06/27 10:24:56;;;;;;;5.95;2.53;;;24.20;99.90;;;;;;5092329;28;20172;-48
2023/06/27 10:27:24;;;;;;;5.38;2.33;;;24.60;99.90;;;;;;5092284;28;20255;-49
2023/06/27 10:29:50;;;;;;;11.60;3.00;;;24.30;99.90;;;;;;5091675;28;20201;-49
2023/06/27 10:32:17;;;;;;;6.57;1.95;;;24.10;99.90;;;;;;5091925;28;20225;-49
2023/06/27 10:34:44;;;;;;;4.65;2.17;;;24.50;99.90;;;;;;5092221;28;20294;-49
2023/06/27 10:37:19;;;;;;;7.60;2.30;;;24.20;99.90;;;;;;5091292;28;20172;-48
2023/06/27 10:39:55;;;;;;;8.23;2.72;;;24.20;99.90;;;;;;5091826;28;20168;-48
2023/06/27 10:42:20;;;;;;;4.25;2.20;;;24.10;99.90;;;;;;5073847;28;20179;-48
2023/06/27 10:45:10;;;;;;;6.03;2.13;;;24.10;99.90;;;;;;5091492;28;20629;-48
2023/06/27 10:48:01;;;;;;;7.43;2.45;;;24.40;99.90;;;;;;5073919;28;20538;-47
2023/06/27 10:50:27;;;;;;;4.72;2.53;;;24.00;99.90;;;;;;5091766;28;20861;-48
2023/06/27 10:53:06;;;;;;;3.33;1.95;;;24.30;99.90;;;;;;5091885;28;20302;-48
2023/06/27 10:55:32;;;;;;;7.55;2.67;;;24.50;99.90;;;;;;5091508;28;20694;-48
2023/06/27 10:58:13;;;;;;;6.90;2.60;;;24.40;99.90;;;;;;5091483;28;20298;-48
2023/06/27 11:00:44;;;;;;;7.80;2.70;;;24.40;99.90;;;;;;5091340;28;20169;-48
2023/06/27 11:03:10;;;;;;;6.50;2.30;;;24.90;99.90;;;;;;5091849;28;20164;-48
2023/06/27 11:05:37;;;;;;;6.78;2.10;;;24.40;99.90;;;;;;5091842;28;20239;-48
2023/06/27 11:08:03;;;;;;;7.50;2.47;;;24.80;99.90;;;;;;5091822;28;20157;-47
2023/06/27 11:10:29;;;;;;;5.10;2.08;;;24.20;99.90;;;;;;5091225;28;20303;-48
2023/06/27 11:13:14;;;;;;;7.35;2.38;;;24.30;99.90;;;;;;5091080;28;20161;-48
2023/06/27 11:15:42;;;;;;;6.45;1.88;;;23.90;99.90;;;;;;5091291;28;20691;-48
2023/06/27 11:18:08;;;;;;;7.78;2.30;;;;;;;;;;5091508;28;20211;-49
2023/06/27 11:20:36;;;;;;;5.53;1.90;;;24.20;99.90;;;;;;5091704;28;20601;-49
2023/06/27 11:23:04;;;;;;;4.28;2.13;;;24.10;99.90;;;;;;5091495;28;20207;-48
2023/06/27 11:25:37;;;;;;;7.03;2.47;;;;;;;;;;5073207;28;20574;-49
2023/06/27 11:28:03;;;;;;;4.20;1.83;;;24.00;99.90;;;;;;5091688;28;20176;-48
2023/06/27 11:30:30;;;;;;;7.07;2.30;;;24.40;99.90;;;;;;5091092;28;20306;-48
2023/06/27 11:32:56;;;;;;;4.93;2.45;;;24.40;99.90;;;;;;5091088;28;20540;-48
2023/06/27 11:35:22;;;;;;;6.82;2.40;;;24.10;99.90;;;;;;5091208;28;20173;-50
2023/06/27 11:37:54;;;;;;;5.75;1.95;;;24.20;99.90;;;;;;5091127;28;20165;-49
2023/06/27 11:40:20;;;;;;;6.75;2.22;;;24.60;99.90;;;;;;5091183;28;20243;-49
2023/06/27 11:42:46;;;;;;;6.50;2.42;;;;;;;;;;5090809;28;20629;-49
2023/06/27 11:45:12;;;;;;;4.82;1.98;;;24.00;99.90;;;;;;5091174;28;20172;-49
2023/06/27 11:47:38;;;;;;;4.75;1.95;;;;;;;;;;5093336;28;20173;-48
2023/06/27 11:50:11;;;;;;;4.57;2.13;;;24.30;99.90;;;;;;5095651;28;20542;-48
2023/06/27 11:52:38;;;;;;;3.20;2.17;;;;;;;;;;5095017;28;20173;-48
2023/06/27 11:55:05;;;;;;;5.15;2.15;;;25.00;99.90;;;;;;5095342;28;20222;-50
2023/06/27 11:57:47;;;;;;;8.57;2.50;;;;;;;;;;5094724;28;20711;-49
2023/06/27 12:00:20;;;;;;;6.65;2.30;;;;;;;;;;5095123;28;20214;-49
2023/06/27 12:02:47;;;;;;;5.93;1.90;;;;;;;;;;5094913;28;20616;-50
2023/06/27 12:05:17;;;;;;;8.38;2.00;;;25.20;99.90;;;;;;5095094;28;20169;-49
2023/06/27 12:08:06;;;;;;;5.60;2.20;;;25.20;99.90;;;;;;5095010;28;20211;-49
2023/06/27 12:10:32;;;;;;;5.47;2.15;;;24.90;99.90;;;;;;5046294;28;20278;-50
2023/06/27 12:13:02;;;;;;;5.35;2.10;;;25.20;99.90;;;;;;5094190;28;20169;-50
2023/06/27 12:15:28;;;;;;;5.82;2.00;;;25.70;99.90;;;;;;5094786;28;20176;-50
2023/06/27 12:18:03;;;;;;;5.65;2.10;;;25.20;99.90;;;;;;5094496;28;20538;-49
2023/06/27 12:20:43;;;;;;;6.80;2.47;;;25.40;99.90;;;;;;5094574;28;20658;-49
2023/06/27 12:23:09;;;;;;;8.35;2.45;;;25.10;99.90;;;;;;5094428;28;20565;-49
2023/06/27 12:25:38;;;;;;;4.80;2.28;;;25.00;98.70;;;;;;5094673;28;20181;-50
2023/06/27 12:28:04;;;;;;;5.07;2.10;;;24.70;98.40;;;;;;5095019;28;20205;-48
2023/06/27 12:30:30;;;;;;;5.35;2.13;;;;;;;;;;5094513;28;20208;-49
2023/06/27 12:32:55;;;;;;;4.25;1.88;;;25.60;99.90;;;;;;5094489;28;20193;-48
2023/06/27 12:35:21;;;;;;;7.50;2.78;;;24.90;98.30;;;;;;5094435;28;20543;-49
2023/06/27 12:37:47;;;;;;;4.63;2.40;;;25.60;99.90;;;;;;5094202;28;20157;-48
2023/06/27 12:40:15;;;;;;;5.10;1.88;;;25.80;99.70;;;;;;5094668;28;20629;-48
2023/06/27 12:42:42;;;;;;;6.35;1.90;;;25.20;99.90;;;;;;5094196;28;20648;-48
2023/06/27 12:45:07;;;;;;;5.78;2.13;;;25.50;99.50;;;;;;5094123;28;20247;-48
2023/06/27 12:47:33;;;;;;;9.15;2.45;;;24.70;99.90;;;;;;5094583;28;20286;-48
2023/06/27 12:49:58;;;;;;;7.65;2.40;;;25.00;99.90;;;;;;5094136;28;20279;-48
2023/06/27 12:52:24;;;;;;;11.43;2.72;;;24.50;99.90;;;;;;5094470;28;20169;-48
2023/06/27 12:54:49;;;;;;;7.25;2.13;;;25.30;99.90;;;;;;5094087;28;20522;-48
2023/06/27 12:57:15;;;;;;;4.35;2.08;;;24.70;98.20;;;;;;5094085;28;20652;-48